Time;durP1;ratioP1;P1;durP2;ratioP2;P2;SDS_P1;SDS_P2;PMS_P1;PMS_P2;Temp;Humidity;BMP_temperature;BMP_pressure;BME280_temperature;BME280_humidity;BME280_pressure;Samples;Min_cycle;Max_cycle;Signal;HPM_P1;HPM_P2
2023/05/29 00:00:32;;;;;;;9.07;5.23;;;;;;;14.85;100.00;94941.75;5045950;28;20229;-74
2023/05/29 00:02:58;;;;;;;9.60;5.53;;;;;;;14.98;100.00;94943.38;5038806;28;20229;-74
2023/05/29 00:05:23;;;;;;;9.97;5.63;;;;;;;15.00;100.00;94950.03;5052710;28;20232;-75
2023/05/29 00:07:50;;;;;;;10.27;5.13;;;;;;;15.07;100.00;94947.31;5037062;28;20247;-75
2023/05/29 00:10:16;;;;;;;9.40;5.43;;;;;;;15.18;100.00;94946.53;5024843;28;20229;-75
2023/05/29 00:12:41;;;;;;;11.07;5.67;;;;;;;14.84;100.00;94950.69;5037791;28;20629;-76
2023/05/29 00:15:08;;;;;;;8.73;5.40;;;;;;;14.72;100.00;94950.66;5039415;28;20318;-75
2023/05/29 00:17:33;;;;;;;9.90;5.37;;;;;;;14.83;100.00;94952.50;5035732;28;20237;-74
2023/05/29 00:20:05;;;;;;;10.87;5.70;;;;;;;14.66;100.00;94941.00;5052798;28;20231;-75
2023/05/29 00:22:31;;;;;;;11.13;5.37;;;;;;;14.93;100.00;94945.88;5044496;28;20286;-75
2023/05/29 00:24:56;;;;;;;9.57;5.60;;;;;;;14.89;100.00;94953.44;5052930;28;20622;-75
2023/05/29 00:27:22;;;;;;;13.33;5.90;;;;;;;14.84;100.00;94954.13;5056925;28;20225;-75
2023/05/29 00:29:47;;;;;;;11.37;5.80;;;;;;;14.82;100.00;94958.00;5027888;28;20716;-75
2023/05/29 00:32:13;;;;;;;14.33;5.67;;;;;;;14.71;100.00;94954.31;5036094;28;20237;-75
2023/05/29 00:34:38;;;;;;;11.70;5.63;;;;;;;14.82;100.00;94942.19;5040988;28;20228;-74
2023/05/29 00:37:04;;;;;;;11.00;5.47;;;;;;;14.92;100.00;94944.28;5056309;28;20228;-75
2023/05/29 00:39:29;;;;;;;9.53;5.20;;;;;;;14.98;100.00;94936.28;5024357;28;20303;-75
2023/05/29 00:41:55;;;;;;;10.60;5.53;;;;;;;14.98;100.00;94943.38;5034422;28;20246;-75
2023/05/29 00:44:21;;;;;;;11.93;5.90;;;;;;;15.10;100.00;94944.22;5054602;28;20232;-75
2023/05/29 00:46:50;;;;;;;10.70;5.47;;;;;;;15.16;100.00;94949.41;5033682;28;20229;-74
2023/05/29 00:49:16;;;;;;;11.23;5.47;;;;;;;15.02;100.00;94944.56;5037122;28;20229;-75
2023/05/29 00:51:41;;;;;;;8.57;5.50;;;;;;;14.77;100.00;94947.34;5042224;28;20237;-76
2023/05/29 00:54:07;;;;;;;11.40;5.80;;;;;;;14.84;100.00;94940.97;5035448;28;20232;-75
2023/05/29 00:56:34;;;;;;;9.63;5.60;;;;;;;14.91;100.00;94938.22;5018859;28;20226;-75
2023/05/29 00:59:00;;;;;;;9.33;5.90;;;;;;;14.79;100.00;94938.19;5036690;28;20233;-75
2023/05/29 01:01:26;;;;;;;8.07;5.57;;;;;;;14.74;100.00;94934.59;5034328;28;20225;-75
2023/05/29 01:03:53;;;;;;;8.13;5.53;;;;;;;14.84;100.00;94934.88;5033897;28;20781;-75
2023/05/29 01:06:20;;;;;;;10.07;5.60;;;;;;;14.68;100.00;94935.53;5039798;28;20228;-75
2023/05/29 01:08:46;;;;;;;10.33;5.83;;;;;;;14.60;100.00;94935.81;5040113;28;20239;-75
2023/05/29 01:11:21;;;;;;;11.27;6.03;;;;;;;14.22;100.00;94936.09;5051994;28;20218;-74
2023/05/29 01:13:46;;;;;;;12.50;5.80;;;;;;;14.26;100.00;94937.25;5031041;28;20970;-75
2023/05/29 01:16:29;;;;;;;9.93;5.70;;;;;;;14.32;100.00;94930.31;5021558;28;20226;-72
2023/05/29 01:19:08;;;;;;;13.33;5.87;;;;;;;14.26;100.00;94931.97;5055949;28;20232;-72
2023/05/29 01:21:42;;;;;;;12.40;5.83;;;;;;;13.91;100.00;94941.50;5040935;28;20851;-73
2023/05/29 01:24:21;;;;;;;9.90;5.73;;;;;;;14.06;100.00;94944.59;5032956;28;20229;-73
2023/05/29 01:26:56;;;;;;;11.43;6.23;;;;;;;14.24;100.00;94947.19;5036105;28;20296;-73
2023/05/29 01:29:23;;;;;;;11.10;5.80;;;;;;;14.10;100.00;94940.47;5046628;28;20953;-72
2023/05/29 01:31:48;;;;;;;11.30;5.87;;;;;;;14.17;100.00;94936.75;5042651;28;21288;-72
2023/05/29 01:34:14;;;;;;;10.63;5.70;;;;;;;14.24;100.00;94941.94;5035026;28;20228;-74
2023/05/29 01:36:39;;;;;;;9.03;5.40;;;;;;;14.41;100.00;94940.34;5036718;28;20251;-73
2023/05/29 01:39:05;;;;;;;10.80;5.67;;;;;;;14.40;100.00;94930.03;5052086;28;20287;-72
2023/05/29 01:41:30;;;;;;;9.77;5.77;;;;;;;14.39;100.00;94931.84;5049559;28;20247;-74
2023/05/29 01:43:57;;;;;;;10.37;5.77;;;;;;;14.48;100.00;94933.16;5031237;28;20240;-73
2023/05/29 01:46:22;;;;;;;8.70;5.37;;;;;;;14.47;100.00;94941.28;5019087;28;20225;-73
2023/05/29 01:48:48;;;;;;;8.93;5.60;;;;;;;14.43;100.00;94935.63;5053116;28;20260;-72
2023/05/29 01:51:14;;;;;;;9.27;5.73;;;;;;;14.20;100.00;94946.03;5035390;28;20233;-72
2023/05/29 01:53:39;;;;;;;9.73;5.60;;;;;;;14.18;100.00;94934.94;5023851;28;20271;-72
2023/05/29 01:56:05;;;;;;;10.60;5.77;;;;;;;14.28;100.00;94929.91;5033860;28;20225;-73
2023/05/29 01:58:31;;;;;;;11.37;5.73;;;;;;;14.33;100.00;94922.19;5040130;28;20233;-73
2023/05/29 02:00:57;;;;;;;9.83;5.50;;;;;;;14.28;100.00;94934.41;5050623;28;20251;-73
2023/05/29 02:03:23;;;;;;;11.30;5.90;;;;;;;14.31;100.00;94931.34;5031607;28;20316;-75
2023/05/29 02:05:49;;;;;;;9.80;5.10;;;;;;;14.17;100.00;94930.69;5050517;28;20221;-73
2023/05/29 02:08:14;;;;;;;8.83;5.63;;;;;;;14.14;100.00;94928.47;5032644;28;20243;-74
2023/05/29 02:10:40;;;;;;;10.73;5.80;;;;;;;14.21;100.00;94931.84;5017904;28;20617;-73
2023/05/29 02:13:05;;;;;;;9.43;5.77;;;;;;;14.27;100.00;94927.53;5048414;28;20236;-73
2023/05/29 02:15:31;;;;;;;12.20;6.00;;;;;;;14.41;100.00;94924.53;5048165;28;20243;-74
2023/05/29 02:17:57;;;;;;;10.97;5.90;;;;;;;14.51;100.00;94924.81;5034803;28;20225;-73
2023/05/29 02:20:24;;;;;;;11.83;5.63;;;;;;;14.44;100.00;94926.72;5029407;28;20237;-73
2023/05/29 02:22:49;;;;;;;11.07;5.93;;;;;;;14.39;100.00;94925.78;5046014;28;20898;-73
2023/05/29 02:25:15;;;;;;;10.13;6.13;;;;;;;14.42;100.00;94925.34;5032830;28;20228;-73
2023/05/29 02:27:40;;;;;;;9.87;5.77;;;;;;;14.18;100.00;94922.56;5050055;28;20254;-73
2023/05/29 02:30:06;;;;;;;10.63;5.70;;;;;;;14.08;100.00;94924.91;5046681;28;20235;-72
2023/05/29 02:32:32;;;;;;;9.80;5.70;;;;;;;14.10;100.00;94930.75;5048296;28;20221;-73
2023/05/29 02:34:57;;;;;;;10.67;5.83;;;;;;;13.82;100.00;94933.13;5049510;28;20772;-72
2023/05/29 02:37:25;;;;;;;11.83;5.73;;;;;;;13.71;100.00;94936.44;5033492;28;20240;-72
2023/05/29 02:39:50;;;;;;;8.93;5.57;;;;;;;13.82;100.00;94937.56;5034873;28;20232;-72
2023/05/29 02:42:16;;;;;;;11.40;6.20;;;;;;;13.94;100.00;94933.19;5042361;28;20324;-73
2023/05/29 02:44:41;;;;;;;10.10;6.10;;;;;;;13.97;100.00;94940.66;5050702;28;20232;-72
2023/05/29 02:47:07;;;;;;;11.70;6.20;;;;;;;13.98;100.00;94936.97;5048062;28;20217;-72
2023/05/29 02:49:32;;;;;;;10.40;5.67;;;;;;;14.06;100.00;94940.13;5031724;28;20233;-73
2023/05/29 02:51:58;;;;;;;9.47;5.70;;;;;;;13.99;100.00;94943.84;5036027;28;20228;-73
2023/05/29 02:54:24;;;;;;;9.53;5.57;;;;;;;13.72;100.00;94932.81;5050257;28;20217;-74
2023/05/29 02:56:50;;;;;;;10.57;6.13;;;;;;;13.88;100.00;94926.16;5043709;28;20230;-73
2023/05/29 02:59:15;;;;;;;11.03;6.20;;;;;;;14.00;100.00;94927.84;5046749;28;21133;-74
2023/05/29 03:01:41;;;;;;;9.70;5.87;;;;;;;14.06;100.00;94926.97;5033806;28;20446;-73
2023/05/29 03:04:06;;;;;;;12.53;6.13;;;;;;;14.34;100.00;94939.63;5025382;28;20244;-73
2023/05/29 03:06:32;;;;;;;12.20;6.17;;;;;;;14.32;100.00;94938.22;5050595;28;20221;-72
2023/05/29 03:08:59;;;;;;;10.80;6.13;;;;;;;14.40;100.00;94938.72;5028895;28;20239;-73
2023/05/29 03:11:24;;;;;;;10.83;5.97;;;;;;;14.47;100.00;94936.78;5041149;28;20745;-73
2023/05/29 03:13:50;;;;;;;10.87;6.23;;;;;;;14.41;100.00;94935.06;5031935;28;20225;-73
2023/05/29 03:16:16;;;;;;;10.87;6.30;;;;;;;14.33;100.00;94934.59;5024298;28;20221;-74
2023/05/29 03:18:41;;;;;;;12.13;6.13;;;;;;;14.22;100.00;94936.09;5032021;28;20319;-74
2023/05/29 03:21:07;;;;;;;10.87;6.33;;;;;;;14.32;100.00;94938.22;5033620;28;20803;-73
2023/05/29 03:23:33;;;;;;;12.43;6.20;;;;;;;14.32;100.00;94928.50;5047906;28;20244;-72
2023/05/29 03:25:58;;;;;;;10.40;6.40;;;;;;;14.23;100.00;94935.06;5037857;28;20236;-73
2023/05/29 03:28:23;;;;;;;11.70;6.47;;;;;;;14.07;100.00;94938.28;5034805;28;20232;-74
2023/05/29 03:30:49;;;;;;;11.70;6.63;;;;;;;14.00;100.00;94948.06;5036498;28;20393;-73
2023/05/29 03:33:15;;;;;;;12.40;6.83;;;;;;;13.84;100.00;94946.84;5054445;28;20232;-73
2023/05/29 03:35:40;;;;;;;10.37;6.30;;;;;;;14.13;100.00;94950.56;5026727;28;20779;-73
2023/05/29 03:38:06;;;;;;;13.73;6.50;;;;;;;14.11;100.00;94957.88;5047384;28;20233;-72
2023/05/29 03:40:31;;;;;;;11.83;6.03;;;;;;;14.24;100.00;94957.72;5038124;28;20236;-74
2023/05/29 03:42:57;;;;;;;12.97;6.50;;;;;;;14.51;100.00;94964.31;5048058;28;20221;-72
2023/05/29 03:45:22;;;;;;;13.90;6.63;;;;;;;14.55;100.00;94962.84;5026051;28;20612;-73
2023/05/29 03:47:48;;;;;;;13.50;6.50;;;;;;;14.40;100.00;94967.69;5029602;28;20225;-75
2023/05/29 03:50:15;;;;;;;13.23;6.80;;;;;;;14.64;100.00;94964.13;5021490;28;20294;-72
2023/05/29 03:52:42;;;;;;;11.83;7.13;;;;;;;14.73;100.00;94965.44;5049169;28;20279;-72
2023/05/29 03:55:08;;;;;;;13.60;7.30;;;;;;;14.90;100.00;94967.44;5055809;28;20283;-73
2023/05/29 03:57:34;;;;;;;12.33;7.23;;;;;;;14.91;100.00;94969.03;5044528;28;20218;-73
2023/05/29 04:00:00;;;;;;;17.67;7.50;;;;;;;14.95;100.00;94970.22;5046132;28;20243;-73
2023/05/29 04:02:26;;;;;;;16.17;7.40;;;;;;;15.06;100.00;94975.50;5058513;28;20627;-73
2023/05/29 04:04:52;;;;;;;17.93;7.67;;;;;;;14.94;100.00;94982.56;5027791;28;20251;-73
2023/05/29 04:07:18;;;;;;;15.37;7.37;;;;;;;14.94;100.00;94985.22;5036734;28;20324;-74
2023/05/29 04:09:44;;;;;;;13.77;7.43;;;;;;;14.98;100.00;94989.00;5053244;28;20233;-74
2023/05/29 04:12:10;;;;;;;11.87;6.90;;;;;;;15.01;100.00;94988.56;5040660;28;20232;-73
2023/05/29 04:14:35;;;;;;;13.43;6.90;;;;;;;14.94;100.00;94993.13;5035543;28;20232;-73
2023/05/29 04:17:01;;;;;;;14.10;6.83;;;;;;;14.97;100.00;94995.31;5035052;28;20343;-73
2023/05/29 04:19:26;;;;;;;16.23;6.90;;;;;;;15.07;100.00;94982.38;5032173;28;20233;-73
2023/05/29 04:21:52;;;;;;;17.67;7.23;;;;;;;15.17;100.00;94995.00;5053624;28;20244;-74
2023/05/29 04:24:17;;;;;;;16.03;6.50;;;;;;;15.08;100.00;94993.72;5053647;28;20225;-74
2023/05/29 04:26:44;;;;;;;12.50;6.73;;;;;;;15.13;100.00;94985.94;5051226;28;20232;-75
2023/05/29 04:29:09;;;;;;;15.67;6.93;;;;;;;15.18;100.00;94986.06;5046734;28;20254;-74
2023/05/29 04:31:37;;;;;;;10.83;6.10;;;;;;;15.24;100.00;94993.88;5048181;28;20252;-73
2023/05/29 04:34:04;;;;;;;10.87;6.70;;;;;;;15.23;100.00;94994.13;5025549;28;20319;-74
2023/05/29 04:36:32;;;;;;;16.43;6.70;;;;;;;15.10;100.00;94991.66;5051150;28;20224;-74
2023/05/29 04:38:58;;;;;;;12.50;6.47;;;;;;;15.15;100.00;94992.59;5055262;28;20229;-75
2023/05/29 04:41:29;;;;;;;13.00;6.63;;;;;;;15.26;100.00;95002.38;5019225;28;20317;-76
2023/05/29 04:43:56;;;;;;;14.73;7.23;;;;;;;15.37;100.00;95001.59;5054853;28;20527;-74
2023/05/29 04:46:22;;;;;;;14.50;7.23;;;;;;;15.48;100.00;95003.47;5049518;28;20233;-74
2023/05/29 04:48:47;;;;;;;14.90;6.90;;;;;;;15.45;100.00;94997.88;5031967;28;20271;-73
2023/05/29 04:51:14;;;;;;;15.00;7.10;;;;;;;15.58;100.00;95000.28;5033034;28;20224;-76
2023/05/29 04:53:42;;;;;;;12.77;7.33;;;;;;;15.47;100.00;95006.34;5050331;28;20225;-74
2023/05/29 04:56:08;;;;;;;15.80;7.50;;;;;;;15.53;100.00;95005.44;5050218;28;20293;-74
2023/05/29 04:58:33;;;;;;;18.70;8.60;;;;;;;15.41;100.00;95012.50;5050138;28;20324;-74
2023/05/29 05:00:59;;;;;;;25.03;9.40;;;;;;;15.47;100.00;95015.06;5040860;28;20239;-73
2023/05/29 05:03:25;;;;;;;27.47;10.77;;;;;;;15.64;100.00;95015.22;5052039;28;20242;-75
2023/05/29 05:05:51;;;;;;;24.93;10.30;;;;;;;15.59;100.00;95020.38;5052775;28;20796;-73
2023/05/29 05:08:17;;;;;;;31.90;11.30;;;;;;;15.66;100.00;95026.34;5050708;28;20226;-74
2023/05/29 05:10:43;;;;;;;26.20;11.33;;;;;;;15.74;100.00;95022.56;5034926;28;20561;-73
2023/05/29 05:13:08;;;;;;;24.67;11.13;;;;;;;15.82;100.00;95020.38;5039664;28;20252;-73
2023/05/29 05:15:34;;;;;;;25.70;10.70;;;;;;;15.83;100.00;95027.28;5049430;28;20241;-74
2023/05/29 05:17:59;;;;;;;24.40;11.00;;;;;;;15.95;100.00;95028.06;5053846;28;20225;-72
2023/05/29 05:20:25;;;;;;;30.43;10.93;;;;;;;15.94;100.00;95030.94;5049910;28;20239;-73
2023/05/29 05:22:51;;;;;;;22.80;11.33;;;;;;;15.98;100.00;95032.06;5051572;28;20229;-73
2023/05/29 05:25:17;;;;;;;25.90;11.47;;;;;;;16.01;100.00;95032.44;5050993;28;20340;-72
2023/05/29 05:27:42;;;;;;;28.80;11.40;;;;;;;16.02;100.00;95027.97;5050029;28;20245;-72
2023/05/29 05:30:08;;;;;;;27.27;11.00;;;;;;;16.08;100.00;95034.94;5049212;28;20263;-72
2023/05/29 05:32:34;;;;;;;30.20;11.90;;;;;;;16.12;100.00;95042.16;5050068;28;20255;-73
2023/05/29 05:35:00;;;;;;;33.33;11.77;;;;;;;16.41;100.00;95035.13;5049993;28;20294;-72
2023/05/29 05:37:26;;;;;;;29.67;11.73;;;;;;;16.32;100.00;95038.38;5033458;28;20225;-73
2023/05/29 05:39:53;;;;;;;26.70;11.33;;;;;;;16.35;99.33;95045.84;5046344;28;20302;-72
2023/05/29 05:42:19;;;;;;;28.23;11.30;;;;;;;16.48;100.00;95037.69;5053638;28;20722;-73
2023/05/29 05:44:44;;;;;;;27.83;10.80;;;;;;;16.63;98.60;95043.28;5048196;28;20321;-73
2023/05/29 05:47:10;;;;;;;27.47;10.93;;;;;;;16.76;97.94;95040.38;5048141;28;20230;-73
2023/05/29 05:49:36;;;;;;;18.30;8.90;;;;;;;16.80;97.33;95034.41;5049715;28;20627;-75
2023/05/29 05:52:01;;;;;;;18.37;8.07;;;;;;;16.94;96.64;95029.63;5053576;28;20706;-72
2023/05/29 05:54:27;;;;;;;17.23;8.13;;;;;;;17.16;96.12;95033.22;5055284;28;20939;-72
2023/05/29 05:56:52;;;;;;;18.73;7.07;;;;;;;17.17;95.95;95034.81;5022342;28;20279;-70
2023/05/29 05:59:18;;;;;;;13.83;6.37;;;;;;;17.25;95.51;95041.56;5050491;28;20233;-72
2023/05/29 06:01:43;;;;;;;16.67;6.40;;;;;;;17.32;95.75;95032.44;5045103;28;20237;-72
2023/05/29 06:04:09;;;;;;;15.10;5.97;;;;;;;17.24;95.76;95032.03;5052636;28;20245;-72
2023/05/29 06:06:35;;;;;;;12.60;6.13;;;;;;;17.37;96.70;95035.19;5029782;28;20686;-72
2023/05/29 06:09:01;;;;;;;12.60;6.20;;;;;;;17.33;96.29;95034.06;5048639;28;20240;-73
2023/05/29 06:11:26;;;;;;;15.97;6.30;;;;;;;17.27;94.18;95028.91;5053098;28;20228;-73
2023/05/29 06:13:52;;;;;;;14.33;6.07;;;;;;;17.40;94.80;95040.00;5049334;28;20755;-76
2023/05/29 06:16:18;;;;;;;9.77;4.60;;;;;;;17.09;93.96;95035.22;5049751;28;20237;-75
2023/05/29 06:18:44;;;;;;;9.73;5.60;;;;;;;17.29;94.72;95037.44;5048636;28;20319;-74
2023/05/29 06:21:11;;;;;;;18.70;7.00;;;;;;;17.26;95.55;95038.72;5056695;28;20275;-74
2023/05/29 06:23:37;;;;;;;11.53;6.60;;;;;;;17.20;96.26;95044.13;5048457;28;20697;-74
2023/05/29 06:26:03;;;;;;;17.47;9.43;;;;;;;17.11;93.96;95054.28;5046721;28;20231;-75
2023/05/29 06:28:29;;;;;;;11.73;5.70;;;;;;;17.17;95.18;95049.91;5028514;28;20220;-74
2023/05/29 06:30:59;;;;;;;6.60;4.10;;;;;;;17.29;94.94;95043.50;5067078;28;20670;-76
2023/05/29 06:33:24;;;;;;;9.17;4.57;;;;;;;17.44;94.01;95041.13;5042182;28;20255;-75
2023/05/29 06:35:50;;;;;;;9.93;5.40;;;;;;;17.52;93.52;95039.16;5053560;28;20221;-74
2023/05/29 06:38:16;;;;;;;9.83;6.00;;;;;;;17.60;93.02;95036.13;5051523;28;20229;-75
2023/05/29 06:40:41;;;;;;;12.43;5.47;;;;;;;17.74;93.36;95040.06;5044223;28;20268;-74
2023/05/29 06:43:10;;;;;;;13.57;4.80;;;;;;;17.79;93.10;95042.78;5050380;28;20229;-75
2023/05/29 06:45:36;;;;;;;9.77;4.47;;;;;;;17.80;93.15;95039.91;5047972;28;20233;-74
2023/05/29 06:48:01;;;;;;;9.23;4.00;;;;;;;17.76;93.04;95036.13;5049610;28;20236;-74
2023/05/29 06:50:27;;;;;;;9.10;4.10;;;;;;;17.95;92.06;95041.97;5032458;28;20229;-75
2023/05/29 06:52:53;;;;;;;15.50;5.43;;;;;;;18.02;91.27;95038.13;5056940;28;20772;-75
2023/05/29 06:55:19;;;;;;;10.63;4.50;;;;;;;18.07;91.98;95037.41;5030878;28;20652;-73
2023/05/29 06:57:45;;;;;;;9.13;4.30;;;;;;;18.11;91.20;95036.66;5035839;28;20225;-74
2023/05/29 07:00:11;;;;;;;9.37;4.53;;;;;;;18.24;90.98;95040.03;5038794;28;20335;-74
2023/05/29 07:02:37;;;;;;;11.23;4.53;;;;;;;18.15;91.91;95037.78;5035687;28;20229;-76
2023/05/29 07:05:03;;;;;;;10.00;4.97;;;;;;;18.16;92.75;95036.75;5050401;28;20233;-75
2023/05/29 07:07:28;;;;;;;9.03;3.33;;;;;;;18.17;91.40;95040.97;5035385;28;20251;-72
2023/05/29 07:09:54;;;;;;;4.53;2.60;;;;;;;18.13;89.00;95037.22;5047070;28;20229;-73
2023/05/29 07:12:19;;;;;;;6.40;3.17;;;;;;;18.08;90.45;95034.50;5038436;28;20225;-73
2023/05/29 07:14:47;;;;;;;9.17;4.30;;;;;;;18.14;91.14;95043.34;5047721;28;20237;-73
2023/05/29 07:17:13;;;;;;;10.53;4.90;;;;;;;18.26;90.97;95037.94;5048170;28;20225;-74
2023/05/29 07:19:39;;;;;;;6.13;3.10;;;;;;;18.48;89.17;95047.56;5040570;28;20706;-73
2023/05/29 07:22:05;;;;;;;5.17;2.90;;;;;;;18.59;88.36;95044.00;5042959;28;20228;-72
2023/05/29 07:24:30;;;;;;;5.50;2.50;;;;;;;18.62;87.70;95045.34;5047896;28;20242;-74
2023/05/29 07:26:56;;;;;;;5.80;3.53;;;;;;;18.62;89.88;95045.34;5051068;28;20236;-73
2023/05/29 07:29:23;;;;;;;7.97;4.13;;;;;;;18.50;89.10;95042.81;5047360;28;20225;-73
2023/05/29 07:31:49;;;;;;;7.17;4.23;;;;;;;18.53;90.31;95037.00;5051279;28;20229;-73
2023/05/29 07:34:14;;;;;;;6.83;3.97;;;;;;;18.60;89.95;95039.50;5034672;28;20233;-74
2023/05/29 07:37:16;;;;;;;6.23;3.60;;;;;;;18.40;88.84;95042.63;5053086;28;20295;-73
2023/05/29 07:39:42;;;;;;;5.63;3.27;;;;;;;18.41;88.16;95043.44;5026416;28;20294;-74
2023/05/29 07:42:07;;;;;;;6.37;3.00;;;;;;;18.42;89.25;95045.84;5046659;28;20226;-73
2023/05/29 07:44:33;;;;;;;6.03;3.30;;;;;;;18.42;88.86;95045.84;5031571;28;20233;-74
2023/05/29 07:46:58;;;;;;;12.27;4.30;;;;;;;18.57;89.32;95040.78;5039070;28;20224;-74
2023/05/29 07:49:24;;;;;;;9.30;3.20;;;;;;;18.63;89.72;95046.94;5053483;28;20290;-74
2023/05/29 07:51:50;;;;;;;9.77;3.50;;;;;;;18.60;88.84;95040.31;5052373;28;20714;-74
2023/05/29 07:54:20;;;;;;;4.43;3.13;;;;;;;18.54;89.36;95033.31;5032627;28;20239;-75
2023/05/29 07:56:46;;;;;;;5.57;2.90;;;;;;;18.65;87.44;95032.38;5059695;28;20237;-73
2023/05/29 07:59:11;;;;;;;4.43;2.90;;;;;;;18.83;88.14;95031.28;5047707;28;20780;-72
2023/05/29 08:01:37;;;;;;;3.77;2.87;;;;;;;18.98;86.20;95031.47;5047245;28;20270;-73
2023/05/29 08:04:02;;;;;;;3.80;2.70;;;;;;;19.18;86.29;95039.63;5031683;28;20233;-75
2023/05/29 08:06:28;;;;;;;4.53;2.50;;;;;;;19.44;85.54;95032.75;5058486;28;20279;-76
2023/05/29 08:08:53;;;;;;;2.97;2.50;;;;;;;19.17;83.78;95040.69;5054309;28;20238;-75
2023/05/29 08:11:19;;;;;;;3.30;2.57;;;;;;;19.04;84.09;95046.38;5059240;28;20229;-74
2023/05/29 08:13:45;;;;;;;4.50;2.80;;;;;;;18.98;84.45;95038.63;5027668;28;20767;-75
2023/05/29 08:16:10;;;;;;;5.53;2.70;;;;;;;18.90;86.97;95033.75;5050672;28;20383;-72
2023/05/29 08:18:36;;;;;;;6.93;3.17;;;;;;;19.00;85.92;95041.81;5053573;28;20235;-74
2023/05/29 08:21:02;;;;;;;4.93;3.30;;;;;;;19.22;85.31;95035.44;5063291;28;20232;-74
2023/05/29 08:23:27;;;;;;;6.10;3.27;;;;;;;19.50;83.75;95042.38;5031329;28;20255;-74
2023/05/29 08:25:53;;;;;;;6.53;3.30;;;;;;;19.60;83.97;95047.78;5051576;28;20620;-74
2023/05/29 08:28:18;;;;;;;5.13;3.00;;;;;;;19.34;83.92;95044.06;5055510;28;20968;-74
2023/05/29 08:30:44;;;;;;;4.90;3.37;;;;;;;19.40;83.60;95044.94;5056791;28;20323;-74
2023/05/29 08:33:09;;;;;;;5.00;3.37;;;;;;;19.75;82.78;95045.25;5046125;28;20768;-73
2023/05/29 08:35:35;;;;;;;5.30;3.30;;;;;;;19.80;83.22;95050.59;5018713;28;20221;-74
2023/05/29 08:38:01;;;;;;;5.63;3.40;;;;;;;19.36;81.58;95043.84;5027020;28;20233;-74
2023/05/29 08:40:26;;;;;;;5.87;3.40;;;;;;;19.35;83.29;95043.00;5054648;28;20248;-73
2023/05/29 08:43:06;;;;;;;6.00;3.10;;;;;;;19.36;81.25;95033.22;5051293;28;20226;-72
2023/05/29 08:45:33;;;;;;;5.03;3.20;;;;;;;19.39;81.20;95038.81;5048493;28;20265;-72
2023/05/29 08:47:58;;;;;;;5.90;3.30;;;;;;;19.56;81.73;95033.38;5053572;28;20259;-73
2023/05/29 08:50:24;;;;;;;6.63;2.97;;;;;;;19.66;80.37;95033.47;5034829;28;20915;-75
2023/05/29 08:52:50;;;;;;;5.30;3.07;;;;;;;19.57;79.00;95028.88;5054900;28;20233;-74
2023/05/29 08:55:16;;;;;;;5.70;3.10;;;;;;;19.61;76.60;95030.78;5055384;28;20244;-74
2023/05/29 08:57:43;;;;;;;6.23;2.93;;;;;;;19.86;77.72;95023.03;5062447;28;20671;-74
2023/05/29 09:00:16;;;;;;;4.23;2.90;;;;;;;20.16;79.32;95027.75;5042046;28;20249;-73
2023/05/29 09:02:43;;;;;;;6.37;3.30;;;;;;;19.94;78.06;95022.53;5050191;28;20248;-73
2023/05/29 09:05:09;;;;;;;4.70;3.50;;;;;;;19.81;77.20;95020.34;5052988;28;20343;-74
2023/05/29 09:07:38;;;;;;;5.67;3.50;;;;;;;19.76;77.23;95028.25;5050485;28;20742;-73
2023/05/29 09:10:06;;;;;;;4.93;3.40;;;;;;;19.83;77.07;95022.72;5043654;28;20248;-73
2023/05/29 09:12:31;;;;;;;5.90;3.33;;;;;;;19.85;75.75;95015.28;5051113;28;20234;-73
2023/05/29 09:14:57;;;;;;;5.03;3.23;;;;;;;19.77;75.73;95024.56;5044690;28;20287;-73
2023/05/29 09:17:22;;;;;;;4.83;3.20;;;;;;;19.66;75.51;95009.59;5054099;28;20283;-74
2023/05/29 09:19:48;;;;;;;5.60;3.13;;;;;;;19.55;75.35;95007.91;5044082;28;20225;-74
2023/05/29 09:22:14;;;;;;;5.73;3.30;;;;;;;19.64;77.43;95011.69;5052394;28;20307;-73
2023/05/29 09:24:40;;;;;;;5.00;3.43;;;;;;;19.64;76.09;94998.41;5051822;28;20229;-75
2023/05/29 09:27:11;;;;;;;6.87;3.30;;;;;;;19.53;78.16;95003.91;5051977;28;20231;-75
2023/05/29 09:29:40;;;;;;;4.73;3.67;;;;;;;19.57;78.52;94991.72;5052700;28;20673;-73
2023/05/29 09:32:19;;;;;;;8.40;3.60;;;;;;;19.54;79.68;94994.88;5031421;28;20262;-74
2023/05/29 09:34:44;;;;;;;5.17;3.60;;;;;;;19.48;77.76;94996.69;5039304;28;20295;-74
2023/05/29 09:37:11;;;;;;;3.70;3.30;;;;;;;19.53;78.36;94988.78;5023651;28;20225;-73
2023/05/29 09:39:49;;;;;;;5.20;3.27;;;;;;;20.06;76.13;94991.28;5034860;28;20260;-74
2023/05/29 09:42:15;;;;;;;4.10;3.70;;;;;;;20.57;74.75;94983.59;5054257;28;20694;-74
2023/05/29 09:44:41;;;;;;;4.23;3.50;;;;;;;20.56;73.42;94982.03;5043615;28;20241;-73
2023/05/29 09:47:07;;;;;;;5.60;3.50;;;;;;;20.90;73.70;94974.44;5050521;28;20255;-74
2023/05/29 09:49:33;;;;;;;5.10;3.60;;;;;;;21.08;72.06;94980.09;5052198;28;20230;-73
2023/05/29 09:52:01;;;;;;;8.03;3.50;;;;;;;20.85;72.66;94974.41;5052997;28;20220;-73
2023/05/29 09:54:29;;;;;;;6.70;3.60;;;;;;;20.82;74.71;94978.41;5048512;28;20237;-74
2023/05/29 09:56:55;;;;;;;7.13;3.80;;;;;;;20.47;73.17;94975.56;5051354;28;20233;-74
2023/05/29 09:59:21;;;;;;;6.60;3.93;;;;;;;20.31;73.18;94973.91;5049362;28;20375;-73
2023/05/29 10:01:46;;;;;;;6.80;3.43;;;;;;;20.48;74.86;94970.00;5051968;28;20232;-73
2023/05/29 10:04:12;;;;;;;5.33;3.60;;;;;;;20.36;74.06;94972.09;5050474;28;20324;-73
2023/05/29 10:06:38;;;;;;;6.93;3.80;;;;;;;20.69;73.11;94962.91;5036240;28;20312;-73
2023/05/29 10:09:05;;;;;;;4.37;3.50;;;;;;;21.18;69.84;94961.47;5050034;28;20286;-74
2023/05/29 10:11:31;;;;;;;7.23;3.80;;;;;;;21.27;69.81;94959.88;5048768;28;20308;-75
2023/05/29 10:13:57;;;;;;;4.30;3.30;;;;;;;21.08;69.73;94961.47;5051151;28;20317;-73
2023/05/29 10:16:23;;;;;;;5.73;3.60;;;;;;;20.92;70.22;94965.09;5049117;28;20656;-73
2023/05/29 10:19:01;;;;;;;5.70;3.43;;;;;;;21.07;68.07;94959.03;5027371;28;20347;-76
2023/05/29 10:21:27;;;;;;;5.67;3.87;;;;;;;21.58;70.34;94960.69;5051734;28;20720;-74
2023/05/29 10:23:53;;;;;;;6.70;3.70;;;;;;;21.93;68.43;94966.03;5036668;28;20887;-75
2023/05/29 10:26:22;;;;;;;7.30;3.50;;;;;;;21.86;66.23;94954.84;5044948;28;20316;-75
2023/05/29 10:29:05;;;;;;;8.23;3.88;;;;;;;22.09;65.67;94958.81;5050324;28;20229;-76
2023/05/29 10:31:58;;;;;;;4.45;3.55;;;;;;;21.94;67.32;94950.84;5051784;28;20723;-73
2023/05/29 10:34:30;;;;;;;7.30;3.65;;;;;;;22.13;66.90;94954.53;5051816;28;20264;-74
2023/05/29 10:37:06;;;;;;;7.28;3.90;;;;;;;21.70;66.30;94955.09;5059477;28;20311;-74
2023/05/29 10:39:34;;;;;;;4.13;3.50;;;;;;;21.38;66.63;94948.16;5035692;28;20303;-74
2023/05/29 10:42:00;;;;;;;9.85;3.63;;;;;;;21.24;67.06;94949.75;5052475;28;20798;-75
2023/05/29 10:44:31;;;;;;;4.80;3.60;;;;;;;21.27;68.55;94949.25;5053306;28;20221;-74
2023/05/29 10:47:00;;;;;;;4.88;3.67;;;;;;;21.14;69.36;94946.28;5050760;28;20247;-73
2023/05/29 10:49:25;;;;;;;5.13;3.53;;;;;;;21.01;71.28;94946.78;5051843;28;20625;-75
2023/05/29 10:51:51;;;;;;;7.47;3.90;;;;;;;20.96;70.90;94944.09;5044379;28;20233;-77
2023/05/29 10:54:22;;;;;;;8.40;4.10;;;;;;;20.90;70.68;94939.84;5057989;28;20889;-75
2023/05/29 10:56:57;;;;;;;7.50;4.20;;;;;;;20.87;71.12;94933.19;5049960;28;20260;-75
2023/05/29 10:59:27;;;;;;;7.60;3.80;;;;;;;20.88;72.37;94928.63;5047910;28;20526;-74
2023/05/29 11:01:53;;;;;;;5.30;3.80;;;;;;;20.84;68.65;94931.03;5054892;28;20323;-75
2023/05/29 11:04:21;;;;;;;5.38;3.95;;;;;;;20.79;67.88;94926.50;5052114;28;20304;-76
2023/05/29 11:06:47;;;;;;;5.47;3.60;;;;;;;20.87;69.68;94925.19;5050987;28;20320;-74
2023/05/29 11:09:34;;;;;;;6.22;3.80;;;;;;;20.90;70.52;94911.34;5060686;28;20225;-74
2023/05/29 11:12:35;;;;;;;6.53;3.97;;;;;;;21.17;69.38;94913.81;5042278;28;20789;-75
2023/05/29 11:15:09;;;;;;;6.10;3.80;;;;;;;21.44;69.67;94915.16;5031932;28;20773;-75
2023/05/29 11:17:38;;;;;;;5.22;3.70;;;;;;;21.73;69.23;94917.28;5051539;28;20324;-75
2023/05/29 11:20:05;;;;;;;5.90;4.35;;;;;;;21.75;68.21;94915.13;5060509;28;20291;-76
2023/05/29 11:22:44;;;;;;;4.30;3.50;;;;;;;21.96;66.40;94916.72;5053846;28;21163;-75